Terminal Aerodrome Forecast
Issued by NWS

Home | Current Version | Previous Version | Graphics & Text | Print | Product List | Glossary On
Versions: 1 2 3 4 5 6 7 8 9 10 11 12 13 14 15 16 17 18 19 20
608
FTUS43 KBIS 211131
TAFDIK
TAF
KDIK 211131Z 2112/2212 08008KT P6SM OVC090
     FM211700 11010KT P6SM BKN080
     FM212100 11016G24KT P6SM BKN110
     FM220600 13018G26KT P6SM OVC030=

USA.gov is the U.S. government's official web portal to all federal, state and local government web resources and services.